Shin Puropan Maru — JG5508 — position and weather

sailwx.info

Track history (hours):
 
Tides and Currents Weather Stations Pressure Air Temp Water Temp Dewpoint Dewpoint Depression Visibility Wind Speed Wind Dir Waves Ship Positions

Shin Puropan Maru

Last reported at 2015-Jul-07 01:30 UTC. Time now 2015-Jul-07 02:27 UTC.
Position N 35°33' E 140°05'.

Length 66 m; draft 3.6 m.

Type: Ship (hazmat cat A). MMSI: 431100348.

Date/timePositionNaut miles runAvg speedWind from/ knotsBaromVisibWave heightAir tempDewpointWater temp
2015-Jul-07 01:30N 35°33' E 140°05'0 0.0
2015-Jul-07 00:33N 35°33' E 140°05'0 0.1
2015-Jul-06 23:33N 35°33' E 140°05'1 0.8
2015-Jul-06 22:25N 35°34' E 140°05'0 0.1
2015-Jul-06 21:25N 35°34' E 140°05'0 0.0
2015-Jul-06 20:19N 35°33' E 140°05'0 0.1
2015-Jul-06 19:22N 35°33' E 140°05'0 0.1
2015-Jul-06 18:28N 35°33' E 140°05'0 0.0
2015-Jul-06 17:25N 35°33' E 140°05'0 0.0
2015-Jul-06 16:16N 35°34' E 140°05'0 0.0
2015-Jul-06 15:25N 35°34' E 140°05'0 0.4
2015-Jul-06 14:33N 35°33' E 140°05'1110.9
2015-Jul-06 13:33N 35°29' E 139°53'1111.4
2015-Jul-06 12:33N 35°20' E 139°44'1111.0
2015-Jul-06 11:34N 35°09' E 139°46'1211.5
2015-Jul-06 10:33N 35°02' E 139°35'23510.5
2015-Jul-05 12:06N 33°59' E 135°01'711.8
2015-Jul-05 11:33N 34°06' E 134°60'2211.2
2015-Jul-05 09:33N 34°27' E 135°08'1312.8
2015-Jul-05 08:33N 34°36' E 135°19'5 1.3
2015-Jul-05 04:31N 34°35' E 135°25'8 8.8
2015-Jul-05 03:33N 34°31' E 135°16'1312.2
2015-Jul-05 02:31N 34°23' E 135°05'1211.4
2015-Jul-05 01:26N 34°11' E 134°59'  
2015-Jun-30 07:30N 35°03' E 139°33'1111.8
2015-Jun-30 06:33N 35°10' E 139°44'1010.1
2015-Jun-30 05:33N 35°20' E 139°43'1110.5
2015-Jun-30 04:33N 35°29' E 139°50'1211.6
2015-Jun-30 03:34N 35°34' E 140°03'2 1.7
2015-Jun-30 02:31N 35°33' E 140°05'0 0.0
2015-Jun-30 01:28N 35°33' E 140°05'0 0.0
2015-Jun-30 00:31N 35°33' E 140°05'0 0.1
2015-Jun-29 23:34N 35°33' E 140°05'5 5.0
2015-Jun-29 22:34N 35°32' E 139°59'1211.8
2015-Jun-29 21:33N 35°25' E 139°48'1010.4
2015-Jun-29 20:34N 35°15' E 139°47'1211.5
2015-Jun-29 19:34N 35°04' E 139°41'  
2015-Jun-27 13:16N 33°58' E 135°01'1012.7
2015-Jun-27 12:28N 34°08' E 134°60'2211.2
2015-Jun-27 10:32N 34°28' E 135°10'1212.5
2015-Jun-27 09:33N 34°35' E 135°22'2 0.6
2015-Jun-27 05:32N 34°36' E 135°24'  
Track history (hours):
 
Tides and Currents Weather Stations Pressure Air Temp Water Temp Dewpoint Dewpoint Depression Visibility Wind Speed Wind Dir Waves Ship Positions

Shin Puropan Maru

Last reported at 2015-Jul-07 01:30 UTC. Time now 2015-Jul-07 02:27 UTC.
Position N 35°33' E 140°05'.

Length 66 m; draft 3.6 m.

Type: Ship (hazmat cat A). MMSI: 431100348.

Date/timePositionNaut miles runAvg speedWind from/ knotsBaromVisibWave heightAir tempDewpointWater temp
2015-Jul-07 01:30N 35°33' E 140°05'0 0.0
2015-Jul-07 00:33N 35°33' E 140°05'0 0.1
2015-Jul-06 23:33N 35°33' E 140°05'1 0.8
2015-Jul-06 22:25N 35°34' E 140°05'0 0.1
2015-Jul-06 21:25N 35°34' E 140°05'0 0.0
2015-Jul-06 20:19N 35°33' E 140°05'0 0.1
2015-Jul-06 19:22N 35°33' E 140°05'0 0.1
2015-Jul-06 18:28N 35°33' E 140°05'0 0.0
2015-Jul-06 17:25N 35°33' E 140°05'0 0.0
2015-Jul-06 16:16N 35°34' E 140°05'0 0.0
2015-Jul-06 15:25N 35°34' E 140°05'0 0.4
2015-Jul-06 14:33N 35°33' E 140°05'1110.9
2015-Jul-06 13:33N 35°29' E 139°53'1111.4
2015-Jul-06 12:33N 35°20' E 139°44'1111.0
2015-Jul-06 11:34N 35°09' E 139°46'1211.5
2015-Jul-06 10:33N 35°02' E 139°35'23510.5
2015-Jul-05 12:06N 33°59' E 135°01'711.8
2015-Jul-05 11:33N 34°06' E 134°60'2211.2
2015-Jul-05 09:33N 34°27' E 135°08'1312.8
2015-Jul-05 08:33N 34°36' E 135°19'5 1.3
2015-Jul-05 04:31N 34°35' E 135°25'8 8.8
2015-Jul-05 03:33N 34°31' E 135°16'1312.2
2015-Jul-05 02:31N 34°23' E 135°05'1211.4
2015-Jul-05 01:26N 34°11' E 134°59'  
2015-Jun-30 07:30N 35°03' E 139°33'1111.8
2015-Jun-30 06:33N 35°10' E 139°44'1010.1
2015-Jun-30 05:33N 35°20' E 139°43'1110.5
2015-Jun-30 04:33N 35°29' E 139°50'1211.6
2015-Jun-30 03:34N 35°34' E 140°03'2 1.7
2015-Jun-30 02:31N 35°33' E 140°05'0 0.0
2015-Jun-30 01:28N 35°33' E 140°05'0 0.0
2015-Jun-30 00:31N 35°33' E 140°05'0 0.1
2015-Jun-29 23:34N 35°33' E 140°05'5 5.0
2015-Jun-29 22:34N 35°32' E 139°59'1211.8
2015-Jun-29 21:33N 35°25' E 139°48'1010.4
2015-Jun-29 20:34N 35°15' E 139°47'1211.5
2015-Jun-29 19:34N 35°04' E 139°41'  
2015-Jun-27 13:16N 33°58' E 135°01'1012.7
2015-Jun-27 12:28N 34°08' E 134°60'2211.2
2015-Jun-27 10:32N 34°28' E 135°10'1212.5
2015-Jun-27 09:33N 34°35' E 135°22'2 0.6
2015-Jun-27 05:32N 34°36' E 135°24'  

Dump ship's entire track history